Data for 05/21/2015

Time Sea-Level Adjusted Pressure Absolute Pressure Temperature Relative Humidity Dew Point   
(mb) (inHg) (mb) (inHg) (C) (F) (%) (C) (F)
00:05 1020 30.12 849 25.07 7.2 45 62 0.5 33
00:10 1020 30.12 849 25.07 7.2 45 62 0.5 33
00:15 1020 30.12 849 25.07 7.2 45 62 0.5 32.9
00:20 1020 30.12 849 25.07 7.2 44.9 62 0.5 32.9
00:25 1020 30.12 849 25.07 7.2 44.9 63 0.5 33
00:30 1020 30.12 849 25.07 7.2 45 62 0.5 32.8
00:35 1020 30.12 849 25.07 7.3 45.1 62 0.5 32.8
00:40 1020 30.12 849 25.07 7.3 45.1 62 0.4 32.8
00:45 1020 30.12 849 25.07 7.3 45.1 61 0.4 32.7
00:50 1020 30.12 849 25.07 7.3 45.2 62 0.5 32.8
00:55 1020 30.12 849 25.07 7.3 45.2 62 0.5 33
01:00 1020 30.12 849 25.07 7.3 45.1 62 0.5 32.9
01:05 1020 30.12 849 25.07 7.3 45.2 62 0.6 33
01:10 1020 30.12 849 25.07 7.3 45.1 62 0.5 32.8
01:15 1020 30.12 849 25.07 7.2 45 62 0.5 32.9
01:20 1020 30.12 849 25.07 7.2 44.9 63 0.5 33
01:25 1020 30.12 849 25.07 7.1 44.8 62 0.5 32.8
01:30 1020 30.12 849 25.07 7.1 44.7 63 0.5 33
01:35 1020 30.12 849 25.07 7 44.7 63 0.5 32.9
01:40 1020 30.12 849 25.07 6.9 44.5 64 0.6 33
01:45 1019 30.09 849 25.07 6.8 44.3 64 0.5 32.9
01:50 1019 30.09 849 25.07 6.8 44.3 64 0.5 33
01:55 1019 30.09 849 25.07 6.8 44.2 65 0.6 33.1
02:00 1019 30.09 848 25.04 6.8 44.2 65 0.7 33.2
02:05 1019 30.09 848 25.04 6.7 44.1 65 0.7 33.3
02:10 1019 30.09 848 25.04 6.7 44.1 65 0.7 33.3
02:15 1019 30.09 849 25.07 6.7 44.1 66 0.8 33.4
02:20 1019 30.09 848 25.04 6.7 44.1 66 0.8 33.5
02:25 1019 30.09 848 25.04 6.8 44.2 66 0.8 33.4
02:30 1019 30.09 849 25.07 6.8 44.2 66 0.9 33.6
02:35 1019 30.09 849 25.07 6.7 44.1 66 1 33.7
02:40 1019 30.09 849 25.07 6.8 44.2 66 1 33.7
02:45 1019 30.09 849 25.07 6.9 44.5 67 1.2 34.1
02:50 1019 30.09 849 25.07 6.9 44.4 67 1.3 34.3
02:55 1019 30.09 849 25.07 6.8 44.3 67 1.2 34.2
03:00 1019 30.09 849 25.07 6.8 44.2 68 1.2 34.2
03:05 1019 30.09 849 25.07 6.8 44.2 68 1.3 34.3
03:10 1019 30.09 849 25.07 6.7 44.1 68 1.3 34.3
03:15 1019 30.09 849 25.07 6.7 44.1 68 1.3 34.4
03:20 1019 30.09 849 25.07 6.7 44 69 1.3 34.4
03:25 1020 30.12 849 25.07 6.7 44 69 1.3 34.4
03:30 1020 30.12 849 25.07 6.6 44 69 1.3 34.4
03:35 1020 30.12 849 25.07 6.7 44 69 1.4 34.5
03:40 1020 30.12 849 25.07 6.7 44 69 1.4 34.6
03:45 1020 30.12 849 25.07 6.6 44 69 1.4 34.6
03:50 1020 30.12 849 25.07 6.7 44.1 69 1.5 34.7
03:55 1020 30.12 849 25.07 6.7 44.1 69 1.5 34.8
04:00 1019 30.09 849 25.07 6.8 44.2 69 1.6 34.8
04:05 1020 30.12 849 25.07 6.8 44.2 70 1.6 34.9
04:10 1020 30.12 849 25.07 6.8 44.2 70 1.7 35
04:15 1020 30.12 849 25.07 6.8 44.2 70 1.7 35
04:20 1020 30.12 849 25.07 6.8 44.3 70 1.7 35
04:25 1020 30.12 849 25.07 6.8 44.3 70 1.7 35
04:30 1020 30.12 849 25.07 6.8 44.3 70 1.7 35.1
04:35 1020 30.12 849 25.07 6.8 44.3 70 1.8 35.2
04:40 1020 30.12 849 25.07 6.8 44.3 70 1.8 35.2
04:45 1020 30.12 849 25.07 6.8 44.2 70 1.8 35.2
04:50 1020 30.12 849 25.07 6.8 44.2 70 1.7 35.1
04:55 1020 30.12 849 25.07 6.8 44.2 70 1.8 35.2
05:00 1019 30.09 849 25.07 6.8 44.3 70 1.7 35.1
05:05 1019 30.09 849 25.07 6.8 44.3 70 1.8 35.2
05:10 1019 30.09 849 25.07 6.8 44.3 70 1.8 35.2
05:15 1019 30.09 849 25.07 6.9 44.5 70 1.8 35.2
05:20 1019 30.09 849 25.07 6.9 44.5 70 1.8 35.3
05:25 1019 30.09 849 25.07 6.9 44.5 70 1.8 35.3
05:30 1019 30.09 849 25.07 6.9 44.4 70 1.8 35.3
05:35 1019 30.09 849 25.07 6.9 44.5 70 1.8 35.3
05:40 1019 30.09 849 25.07 7 44.5 70 1.8 35.2
05:45 1020 30.12 849 25.07 7 44.6 70 1.9 35.4
05:50 1020 30.12 849 25.07 7 44.6 70 1.9 35.3
05:55 1020 30.12 849 25.07 7 44.7 70 1.9 35.4
06:00 1020 30.12 849 25.07 7 44.6 70 1.9 35.4
06:05 1020 30.12 849 25.07 7.1 44.7 69 1.9 35.4
06:10 1020 30.12 849 25.07 7.1 44.7 69 1.9 35.4
06:15 1020 30.12 849 25.07 7.2 44.9 69 1.9 35.4
06:20 1020 30.12 849 25.07 7.3 45.1 69 1.9 35.4
06:25 1020 30.12 849 25.07 7.3 45.2 69 2 35.6
06:30 1020 30.12 849 25.07 7.4 45.2 68 1.9 35.4
06:35 1020 30.12 849 25.07 7.4 45.4 68 1.9 35.4
06:40 1020 30.12 849 25.07 7.6 45.6 67 1.9 35.5
06:45 1020 30.12 849 25.07 7.8 46.1 66 2 35.5
06:50 1020 30.12 849 25.07 7.9 46.3 66 2 35.7
06:55 1020 30.12 849 25.07 8 46.3 66 2.1 35.7
07:00 1020 30.12 849 25.07 8.2 46.7 65 2 35.6
07:05 1020 30.12 849 25.07 8.2 46.8 65 2 35.6
07:10 1020 30.12 849 25.07 8.4 47.1 65 2.2 35.9
07:15 1020 30.12 849 25.07 8.4 47 65 2.2 36
07:20 1020 30.12 849 25.07 8.3 47 65 2.1 35.8
07:25 1020 30.12 849 25.07 8.4 47.1 65 2.1 35.8
07:30 1020 30.12 849 25.07 8.6 47.4 64 2.2 36
07:35 1020 30.12 849 25.07 8.6 47.5 64 2.3 36.1
07:40 1020 30.12 849 25.07 8.6 47.5 65 2.4 36.3
07:45 1020 30.12 849 25.07 8.6 47.4 65 2.3 36.1
07:50 1020 30.12 849 25.07 8.6 47.5 64 2.2 36
07:55 1019 30.09 849 25.07 8.5 47.3 65 2.3 36.1
08:00 1019 30.09 849 25.07 8.6 47.5 64 2.2 36
08:05 1019 30.09 849 25.07 8.6 47.5 64 2.2 35.9
08:10 1019 30.09 849 25.07 8.6 47.4 64 2.2 35.9
08:15 1019 30.09 849 25.07 8.6 47.5 64 2.3 36.1
08:20 1019 30.09 849 25.07 8.6 47.6 65 2.4 36.3
08:25 1019 30.09 849 25.07 8.7 47.7 66 2.7 36.8
08:30 1019 30.09 849 25.07 8.8 47.8 66 2.8 37
08:35 1019 30.09 849 25.07 8.9 47.9 64 2.5 36.6
08:40 1019 30.09 849 25.07 9 48.2 64 2.5 36.5
08:45 1019 30.09 849 25.07 9.1 48.3 64 2.7 36.8
08:50 1019 30.09 848 25.04 9.3 48.7 63 2.7 36.8
08:55 1019 30.09 848 25.04 9.8 49.7 61 2.7 36.9
09:00 1019 30.09 848 25.04 9.9 49.9 60 2.6 36.8
09:05 1019 30.09 848 25.04 10.3 50.5 60 2.8 37
09:10 1019 30.09 848 25.04 10.5 51 58 2.8 37
09:15 1019 30.09 848 25.04 10.8 51.4 57 2.6 36.7
09:20 1019 30.09 848 25.04 10.9 51.7 57 2.8 37.1
09:25 1019 30.09 848 25.04 11.3 52.3 56 3 37.3
09:30 1019 30.09 848 25.04 11.4 52.5 55 2.6 36.7
09:35 1019 30.09 848 25.04 11.5 52.7 55 2.9 37.1
09:40 1019 30.09 848 25.04 11.5 52.8 55 2.9 37.2
09:45 1019 30.09 848 25.04 12.1 53.7 54 3.1 37.5
09:50 1019 30.09 848 25.04 12.3 54.2 51 2.7 36.8
09:55 1019 30.09 848 25.04 12.7 54.9 50 2.6 36.8
10:00 1019 30.09 848 25.04 12.8 55.1 51 3 37.3
10:05 1019 30.09 848 25.04 13.3 55.9 49 2.9 37.2
10:10 1019 30.09 848 25.04 13.7 56.6 48 2.9 37.3
10:15 1019 30.09 848 25.04 13.7 56.6 49 3.3 37.9
10:20 1019 30.09 848 25.04 13.9 57 48 3.2 37.8
10:25 1019 30.09 848 25.04 14.1 57.4 47 3.1 37.5
10:30 1019 30.09 848 25.04 14.7 58.4 48 3.7 38.7
10:35 1019 30.09 848 25.04 14.6 58.2 45 3 37.3
10:40 1019 30.09 848 25.04 14.4 58 46 3.1 37.6
10:45 1018 30.06 848 25.04 14 57.2 48 3.3 38
10:50 1019 30.09 848 25.04 14.1 57.4 47 3 37.4
10:55 1019 30.09 848 25.04 14.3 57.7 47 3.2 37.7
11:00 1019 30.09 848 25.04 14.6 58.3 46 3.3 37.9
11:05 1018 30.06 848 25.04 15 59.1 45 3.2 37.7
11:10 1018 30.06 848 25.04 15.6 60.1 45 3.7 38.7
11:15 1018 30.06 848 25.04 15.7 60.3 43 3.4 38.1
11:20 1018 30.06 847 25.01 16 60.7 41 2.8 37.1
11:25 1018 30.06 847 25.01 16.2 61.1 40 2.7 36.9
11:30 1018 30.06 847 25.01 16.6 61.8 38 2.3 36.2
11:35 1018 30.06 847 25.01 16.9 62.4 38 2.5 36.5
11:40 1018 30.06 847 25.01 16.9 62.4 40 3.2 37.7
11:45 1018 30.06 847 25.01 16.2 61.2 41 3.1 37.6
11:50 1018 30.06 847 25.01 16.6 61.8 39 2.9 37.1
11:55 1018 30.06 847 25.01 16.1 60.9 43 3.5 38.3
12:00 1018 30.06 847 25.01 15.9 60.7 41 2.9 37.2
12:05 1018 30.06 847 25.01 16.5 61.6 40 3 37.3
12:10 1018 30.06 847 25.01 16.9 62.3 39 3.1 37.5
12:15 1018 30.06 847 25.01 16.9 62.5 38 2.5 36.6
12:20 1018 30.06 847 25.01 17.5 63.4 38 3 37.5
12:25 1018 30.06 847 25.01 17.4 63.3 36 2.2 35.9
12:30 1018 30.06 847 25.01 17.9 64.1 33 1.4 34.5
12:35 1017 30.03 847 25.01 17.8 64 39 3.8 38.8
12:40 1017 30.03 847 25.01 16.6 61.8 42 3.7 38.6
12:45 1017 30.03 847 25.01 16 60.8 41 3 37.3
12:50 1017 30.03 847 25.01 16.9 62.4 40 3.3 37.9
12:55 1017 30.03 847 25.01 16.5 61.7 46 5 41
13:00 1017 30.03 847 25.01 15.2 59.4 48 4.4 39.9
13:05 1017 30.03 847 25.01 15.1 59.1 45 3.3 38
13:10 1017 30.03 847 25.01 15.6 60 45 3.7 38.6
13:15 1017 30.03 846 24.98 15.6 60.1 44 3.4 38.1
13:20 1017 30.03 846 24.98 16.1 60.9 42 3.4 38.1
13:25 1017 30.03 846 24.98 16.1 61 41 3.1 37.6
13:30 1017 30.03 846 24.98 15.6 60.1 42 2.7 36.8
13:35 1017 30.03 846 24.98 15.1 59.2 42 2.3 36.1
13:40 1017 30.03 846 24.98 15.4 59.7 39 1.8 35.2
13:45 1017 30.03 846 24.98 15.7 60.2 40 2.3 36.1
13:50 1017 30.03 846 24.98 15.7 60.3 43 3.2 37.8
13:55 1017 30.03 846 24.98 15.1 59.2 47 4 39.1
14:00 1017 30.03 846 24.98 15.1 59.3 50 4.8 40.6
14:05 1017 30.03 846 24.98 14.6 58.2 50 4.3 39.8
14:10 1017 30.03 846 24.98 14.1 57.5 52 4.6 40.2
14:15 1017 30.03 846 24.98 14.1 57.4 56 5.5 41.9
14:20 1017 30.03 846 24.98 14.1 57.3 54 5 41.1
14:25 1017 30.03 846 24.98 14.1 57.3 52 4.5 40.1
14:30 1017 30.03 846 24.98 14.2 57.5 52 4.5 40.1
14:35 1017 30.03 846 24.98 14.3 57.8 51 4.4 39.9
14:40 1017 30.03 846 24.98 14.3 57.7 51 4.4 39.9
14:45 1017 30.03 846 24.98 14.4 57.9 50 4.2 39.5
14:50 1017 30.03 846 24.98 14.4 58 49 4 39.2
14:55 1017 30.03 846 24.98 14.4 57.9 49 4 39.1
15:00 1017 30.03 846 24.98 14.5 58.1 50 4.2 39.6
15:05 1017 30.03 846 24.98 14.6 58.2 50 4.2 39.6
15:10 1017 30.03 846 24.98 14.8 58.6 50 4.6 40.2
15:15 1017 30.03 846 24.98 14.6 58.3 48 3.7 38.6
15:20 1017 30.03 846 24.98 14.2 57.6 49 3.7 38.7
15:25 1017 30.03 846 24.98 14.1 57.4 50 4.1 39.3
15:30 1017 30.03 846 24.98 14 57.2 52 4.3 39.8
15:35 1017 30.03 846 24.98 13.8 56.8 51 4 39.2
15:40 1017 30.03 846 24.98 13.8 56.8 52 4.2 39.5
15:45 1017 30.03 846 24.98 13.7 56.7 53 4.3 39.8
15:50 1017 30.03 846 24.98 13.6 56.5 55 4.7 40.5
15:55 1017 30.03 846 24.98 13.1 55.6 62 6.1 43
16:00 1017 30.03 846 24.98 12.6 54.7 63 5.9 42.6
16:05 1017 30.03 846 24.98 12.6 54.6 63 5.7 42.2
16:10 1017 30.03 846 24.98 12.8 55.1 60 5.2 41.4
16:15 1017 30.03 846 24.98 13.3 55.9 58 5.3 41.6
16:20 1017 30.03 846 24.98 13.6 56.4 59 5.9 42.6
16:25 1017 30.03 846 24.98 13.8 56.9 58 5.8 42.5
16:30 1017 30.03 846 24.98 14 57.1 57 5.7 42.3
16:35 1017 30.03 846 24.98 13.7 56.7 56 5.1 41.1
16:40 1017 30.03 846 24.98 13.6 56.6 56 5.2 41.4
16:45 1017 30.03 846 24.98 13.6 56.5 57 5.3 41.5
16:50 1017 30.03 846 24.98 13.4 56.2 57 5.2 41.4
16:55 1017 30.03 846 24.98 13.1 55.6 59 5.4 41.7
17:00 1017 30.03 846 24.98 12.9 55.2 60 5.5 41.9
17:05 1017 30.03 846 24.98 12.7 54.8 60 5.2 41.3
17:10 1017 30.03 846 24.98 12.7 54.8 59 5 41
17:15 1017 30.03 846 24.98 12.7 54.9 59 4.9 40.8
17:20 1017 30.03 846 24.98 12.8 55.1 58 5 40.9
17:25 1016 30 846 24.98 12.8 55.1 58 4.8 40.6
17:30 1017 30.03 846 24.98 12.9 55.2 58 4.8 40.6
17:35 1017 30.03 846 24.98 13.1 55.6 57 4.8 40.6
17:40 1017 30.03 846 24.98 13.3 56 57 5.1 41.2
17:45 1017 30.03 846 24.98 13.1 55.6 57 4.9 40.9
17:50 1017 30.03 846 24.98 12.8 55 56 4.4 39.9
17:55 1017 30.03 846 24.98 12.4 54.3 58 4.5 40.1
18:00 1017 30.03 846 24.98 12.3 54.1 59 4.6 40.3
18:05 1017 30.03 846 24.98 12.2 53.9 60 4.7 40.4
18:10 1017 30.03 846 24.98 12.3 54.2 60 4.8 40.6
18:15 1017 30.03 846 24.98 12.5 54.4 59 4.8 40.7
18:20 1017 30.03 846 24.98 12.5 54.4 59 4.8 40.6
18:25 1017 30.03 846 24.98 12.5 54.6 59 4.8 40.7
18:30 1017 30.03 846 24.98 12.6 54.7 58 4.7 40.4
18:35 1017 30.03 846 24.98 12.6 54.6 58 4.5 40.1
18:40 1017 30.03 846 24.98 12.5 54.6 59 4.9 40.7
18:45 1017 30.03 846 24.98 12.6 54.7 58 4.5 40.1
18:50 1017 30.03 846 24.98 12.5 54.4 59 4.7 40.5
18:55 1017 30.03 846 24.98 12.4 54.2 58 4.5 40.1
19:00 1017 30.03 846 24.98 12.5 54.4 57 4.3 39.7
19:05 1017 30.03 846 24.98 12.5 54.5 58 4.4 40
19:10 1017 30.03 846 24.98 12.4 54.3 59 4.7 40.4
19:15 1017 30.03 846 24.98 12.2 54 60 4.7 40.4
19:20 1017 30.03 846 24.98 12.1 53.9 60 4.7 40.5
19:25 1017 30.03 846 24.98 12.1 53.8 61 4.9 40.7
19:30 1017 30.03 846 24.98 12 53.6 62 5 41.1
19:35 1017 30.03 846 24.98 11.9 53.5 63 5.1 41.2
19:40 1017 30.03 846 24.98 11.8 53.2 64 5.3 41.5
19:45 1017 30.03 846 24.98 11.6 52.9 65 5.3 41.6
19:50 1017 30.03 846 24.98 11.5 52.8 66 5.4 41.8
19:55 1017 30.03 846 24.98 11.4 52.5 68 5.7 42.2
20:00 1017 30.03 846 24.98 11.3 52.3 68 5.6 42.1
20:05 1017 30.03 846 24.98 11.2 52.2 68 5.7 42.2
20:10 1017 30.03 846 24.98 11.2 52.1 69 5.7 42.2
20:15 1017 30.03 846 24.98 11.1 52 69 5.7 42.3
20:20 1017 30.03 846 24.98 11.1 51.9 68 5.4 41.7
20:25 1017 30.03 846 24.98 11.1 51.9 67 5.3 41.5
20:30 1017 30.03 846 24.98 11.1 52.1 67 5.4 41.7
20:35 1017 30.03 846 24.98 11.1 51.9 68 5.4 41.7
20:40 1017 30.03 846 24.98 11 51.9 68 5.4 41.8
20:45 1017 30.03 846 24.98 10.9 51.6 69 5.4 41.7
20:50 1017 30.03 846 24.98 10.8 51.5 69 5.5 41.8
20:55 1017 30.03 846 24.98 10.6 51.2 70 5.3 41.6
21:00 1017 30.03 846 24.98 10.5 51 68 5 40.9
21:05 1017 30.03 846 24.98 10.5 50.9 67 4.8 40.6
21:10 1017 30.03 846 24.98 10.5 50.9 67 4.7 40.5
21:15 1017 30.03 846 24.98 10.4 50.8 66 4.4 39.9
21:20 1017 30.03 846 24.98 10.4 50.7 66 4.4 39.8
21:25 1017 30.03 846 24.98 10.4 50.6 66 4.3 39.7
21:30 1017 30.03 846 24.98 10.4 50.6 65 4.1 39.3
21:35 1017 30.03 846 24.98 10.3 50.6 65 4.1 39.4
21:40 1017 30.03 846 24.98 10.2 50.4 65 4 39.1
21:45 1017 30.03 846 24.98 10.3 50.5 64 3.8 38.9
21:50 1017 30.03 846 24.98 10.3 50.6 64 3.9 39
21:55 1017 30.03 846 24.98 10.3 50.5 64 3.7 38.7
22:00 1017 30.03 846 24.98 10.3 50.5 63 3.6 38.5
22:05 1017 30.03 846 24.98 10.3 50.6 63 3.6 38.4
22:10 1017 30.03 846 24.98 10.4 50.7 63 3.6 38.4
22:15 1017 30.03 846 24.98 10.5 50.8 61 3.4 38.1
22:20 1016 30 846 24.98 10.6 51 61 3.5 38.3
22:25 1016 30 846 24.98 10.5 51 61 3.5 38.3
22:30 1016 30 846 24.98 10.6 51.2 60 3.3 37.9
22:35 1016 30 846 24.98 10.7 51.3 61 3.6 38.5
22:40 1016 30 846 24.98 10.6 51 63 3.8 38.9
22:45 1016 30 846 24.98 10.3 50.5 64 3.9 39
22:50 1016 30 846 24.98 10.1 50.2 65 3.9 39
22:55 1016 30 846 24.98 10 49.9 66 4 39.1
23:00 1016 30 846 24.98 9.9 49.9 65 3.8 38.8
23:05 1016 30 846 24.98 9.9 49.8 65 3.7 38.6
23:10 1016 30 846 24.98 10 49.9 65 3.7 38.7
23:15 1016 30 846 24.98 10 50 65 3.8 38.8
23:20 1016 30 846 24.98 10.1 50.1 65 3.8 38.8
23:25 1016 30 846 24.98 10.1 50.2 65 3.8 38.8
23:30 1016 30 846 24.98 10.1 50.1 65 3.7 38.7
23:35 1016 30 846 24.98 10 50.1 64 3.7 38.6
23:40 1016 30 846 24.98 10 49.9 66 3.9 38.9
23:45 1016 30 846 24.98 9.8 49.7 66 3.8 38.8
23:50 1016 30 846 24.98 9.8 49.7 65 3.7 38.6
23:55 1016 30 846 24.98 9.9 49.7 66 3.8 38.8
24:00 1016 30 845 24.95 9.8 49.6 66 3.9 38.9